Wetterstation-Oberesslingen
Wetterdaten: aktuell Sonntag, 10.05.2026 17:15
Datum Zeit Temperatur BodenT. -10 Temp+5cm Luftfeuchte Bod.Feuchte Luftdruck Regen Wind Richtung Richtung Sonnenschein ET Solar Taupunkt Windchill Windböen Empfang
10.05.2026 17:15 25,2 °C 15,6 °C 29,4 °C 49 % 84 cb 1005,7 hPa 0,0 l/m² 3,2 km/h (1 Bft) SO 135 ° 30 min 0,254 mm 376 W/m² 13,7 °C 25,2 °C 11,3 km/h (2 Bft) 100,00 %
10.05.2026 16:15 24,2 °C 15,6 °C 25,6 °C 49 % 83 cb 1006,4 hPa 0,0 l/m² 3,2 km/h (1 Bft) SO 135 ° 0 min 0,254 mm 272 W/m² 12,8 °C 24,2 °C 8,0 km/h (2 Bft) 100,00 %
10.05.2026 15:15 24,8 °C 15,0 °C 28,9 °C 45 % 82 cb 1007,0 hPa 0,0 l/m² 3,2 km/h (1 Bft) O-NO 67 ° 30 min 0,457 mm 394 W/m² 12,0 °C 24,8 °C 6,4 km/h (2 Bft) 100,00 %
10.05.2026 14:15 26,2 °C 15,0 °C 37,8 °C 39 % 82 cb 1007,5 hPa 0,0 l/m² 3,2 km/h (1 Bft) O-SO 112 ° 60 min 0,559 mm 751 W/m² 11,1 °C 26,2 °C 12,9 km/h (3 Bft) 100,00 %
10.05.2026 13:15 25,8 °C 14,4 °C 36,1 °C 42 % 82 cb 1008,2 hPa 0,0 l/m² 4,8 km/h (1 Bft) O-SO 112 ° 60 min 0,559 mm 735 W/m² 11,9 °C 25,8 °C 11,3 km/h (2 Bft) 100,00 %
10.05.2026 12:15 24,9 °C 14,4 °C 36,1 °C 44 % 84 cb 1008,9 hPa 0,0 l/m² 4,8 km/h (1 Bft) O 90 ° 60 min 0,406 mm 752 W/m² 11,8 °C 24,9 °C 12,9 km/h (3 Bft) 100,00 %
10.05.2026 11:15 22,6 °C 14,4 °C 26,7 °C 53 % 84 cb 1009,7 hPa 0,0 l/m² 3,2 km/h (1 Bft) O-NO 67 ° 60 min 0,356 mm 552 W/m² 12,5 °C 22,6 °C 9,7 km/h (2 Bft) 100,00 %
10.05.2026 10:15 21,1 °C 14,4 °C 19,4 °C 62 % 84 cb 1010,2 hPa 0,0 l/m² 0,0 km/h (0 Bft) W-NW 292 ° 60 min 0,229 mm 464 W/m² 13,5 °C 21,1 °C 4,8 km/h (1 Bft) 100,00 %
10.05.2026 09:15 18,3 °C 14,4 °C 15,0 °C 70 % 85 cb 1010,7 hPa 0,0 l/m² 0,0 km/h (0 Bft) N 360 ° 60 min 0,152 mm 345 W/m² 12,7 °C 18,3 °C 3,2 km/h (1 Bft) 100,00 %
10.05.2026 08:15 14,8 °C 15,0 °C 16,1 °C 83 % 86 cb 1010,8 hPa 0,0 l/m² 0,0 km/h (0 Bft) N 360 ° 25 min 0,051 mm 265 W/m² 11,9 °C 14,8 °C 3,2 km/h (1 Bft) 100,00 %
10.05.2026 07:15 9,5 °C 15,0 °C 7,8 °C 100 % 86 cb 1011,1 hPa 0,0 l/m² 0,0 km/h (0 Bft) W-SW 247 ° 0 min 0,000 mm 63 W/m² 9,5 °C 9,5 °C 1,6 km/h (1 Bft) 100,00 %
10.05.2026 06:15 7,7 °C 15,0 °C 5,6 °C 100 % 86 cb 1011,6 hPa 0,0 l/m² 0,0 km/h (0 Bft) N 0 ° 0 min 0,000 mm 14 W/m² 7,7 °C 7,7 °C 0,0 km/h (0 Bft) 100,00 %
10.05.2026 05:15 7,8 °C 15,0 °C 5,0 °C 99 % 85 cb 1011,7 hPa 0,0 l/m² 0,0 km/h (0 Bft) N 0 ° 0 min 0,000 mm 0 W/m² 7,7 °C 7,8 °C 0,0 km/h (0 Bft) 100,00 %
10.05.2026 04:15 8,5 °C 15,0 °C 5,6 °C 98 % 85 cb 1012,1 hPa 0,0 l/m² 0,0 km/h (0 Bft) N 0 ° 0 min 0,000 mm 0 W/m² 8,2 °C 8,5 °C 0,0 km/h (0 Bft) 100,00 %
10.05.2026 03:15 9,3 °C 15,6 °C 6,1 °C 98 % 85 cb 1012,4 hPa 0,0 l/m² 0,0 km/h (0 Bft) N 0 ° 0 min 0,000 mm 0 W/m² 9,0 °C 9,3 °C 0,0 km/h (0 Bft) 100,00 %
10.05.2026 02:15 9,7 °C 15,6 °C 6,7 °C 96 % 85 cb 1012,9 hPa 0,0 l/m² 0,0 km/h (0 Bft) N 0 ° 0 min 0,000 mm 0 W/m² 9,1 °C 9,7 °C 0,0 km/h (0 Bft) 100,00 %
10.05.2026 01:15 10,8 °C 15,6 °C 7,2 °C 93 % 84 cb 1013,3 hPa 0,0 l/m² 0,0 km/h (0 Bft) N 0 ° 0 min 0,000 mm 0 W/m² 9,7 °C 10,8 °C 0,0 km/h (0 Bft) 100,00 %
10.05.2026 00:15 11,8 °C 15,6 °C 7,8 °C 91 % 83 cb 1013,4 hPa 0,0 l/m² 0,0 km/h (0 Bft) N 0 ° 0 min 0,000 mm 0 W/m² 10,4 °C 11,8 °C 0,0 km/h (0 Bft) 100,00 %
09.05.2026 23:15 13,3 °C 16,1 °C 8,9 °C 85 % 83 cb 1013,3 hPa 0,0 l/m² 0,0 km/h (0 Bft) N 0 ° 0 min 0,000 mm 0 W/m² 10,8 °C 13,3 °C 0,0 km/h (0 Bft) 100,00 %
09.05.2026 22:15 16,7 °C 16,1 °C 11,1 °C 72 % 81 cb 1013,4 hPa 0,0 l/m² 0,0 km/h (0 Bft) N 0 ° 0 min 0,000 mm 0 W/m² 11,6 °C 16,7 °C 0,0 km/h (0 Bft) 100,00 %
09.05.2026 21:15 18,3 °C 16,1 °C 14,4 °C 66 % 81 cb 1013,1 hPa 0,0 l/m² 1,6 km/h (1 Bft) N 360 ° 0 min 0,025 mm 0 W/m² 11,8 °C 18,3 °C 6,4 km/h (2 Bft) 100,00 %
09.05.2026 20:15 20,7 °C 15,6 °C 15,6 °C 56 % 78 cb 1013,0 hPa 0,0 l/m² 1,6 km/h (1 Bft) N-NW 337 ° 10 min 0,076 mm 18 W/m² 11,6 °C 20,7 °C 3,2 km/h (1 Bft) 100,00 %
09.05.2026 19:15 24,0 °C 15,6 °C 18,3 °C 45 % 77 cb 1012,9 hPa 0,0 l/m² 0,0 km/h (0 Bft) N-NO 22 ° 60 min 0,203 mm 155 W/m² 11,3 °C 24,0 °C 8,0 km/h (2 Bft) 100,00 %
09.05.2026 18:15 25,7 °C 15,6 °C 30,6 °C 42 % 76 cb 1013,1 hPa 0,0 l/m² 1,6 km/h (1 Bft) NW 315 ° 15 min 0,305 mm 334 W/m² 11,8 °C 25,7 °C 9,7 km/h (2 Bft) 100,00 %
09.05.2026 18:00 25,4 °C 15,6 °C 31,1 °C 42 % 76 cb 1013,3 hPa 0,0 l/m² 3,2 km/h (1 Bft) NO 45 ° 0 min 0,305 mm 376 W/m² 11,5 °C 25,4 °C 6,4 km/h (2 Bft) 100,00 %
_ Min-Zeit 05:40 08:20 04:20 13:50 18:00 17:10 - 19:15 - - - - - 05:40 05:40 22:15 14:50
Minimum _ 7,4 °C 14,4 °C 5,0 °C 38 % 76 cb 1005,7 hPa - 0,0 km/h (0 Bft) - - - - - 7,3 °C 7,4 °C 0,0 km/h (0 Bft) 97,37 %
_ Max-Zeit 13:40 20:50 13:00 05:10 03:50 22:00 18:00 12:25 - - 18:00 13:00 12:25 10:40 13:40 11:40 18:00
Maximum _ 26,6 °C 16,1 °C 38,3 °C 100 % 86 cb 1013,5 hPa 0,0 l/m² 6,4 km/h
O (2 Bft)
- - 5 min 0,559 mm 809 W/m² 14,8 °C 26,5 °C 19,3 km/h
S-SO (3 Bft)
100,00 %
Durchschnitt _ 17,9 °C 15,2 °C 18,1 °C 68 % 82 cb 1011,2 hPa #0,0 l/m² 1,4 km/h (1 Bft) N - #7:25 h #3,277 mm 410 W/m² 11,0 °C 17,9 °C 4,6 km/h (1 Bft) 99,92 %